Time;durP1;ratioP1;P1;durP2;ratioP2;P2;SDS_P1;SDS_P2;PMS_P1;PMS_P2;Temp;Humidity;BMP_temperature;BMP_pressure;BME280_temperature;BME280_humidity;BME280_pressure;Samples;Min_cycle;Max_cycle;Signal;HPM_P1;HPM_P2
2021/06/23 00:01:31;;;;;;;51.00;25.48;;;;;;;13.81;93.32;99519.63;5012613;28;20038;-61
2021/06/23 00:03:56;;;;;;;45.45;24.75;;;;;;;13.80;93.42;99513.44;5013003;28;20033;-61
2021/06/23 00:06:22;;;;;;;52.03;25.70;;;;;;;13.82;93.38;99526.63;5012650;28;20620;-61
2021/06/23 00:08:47;;;;;;;48.83;24.65;;;;;;;13.85;92.34;99526.13;5012874;28;20392;-61
2021/06/23 00:11:13;;;;;;;39.45;22.58;;;;;;;13.68;93.19;99536.19;5011107;28;20037;-61
2021/06/23 00:13:38;;;;;;;42.08;22.83;;;;;;;13.69;93.31;99527.06;5012806;28;20022;-61
2021/06/23 00:16:07;;;;;;;42.97;23.92;;;;;;;13.67;93.03;99529.19;5011208;28;20049;-61
2021/06/23 00:18:33;;;;;;;39.20;23.65;;;;;;;13.55;94.03;99535.56;5012683;28;20022;-61
2021/06/23 00:20:58;;;;;;;38.30;24.38;;;;;;;13.56;94.21;99539.88;5012248;28;20084;-61
2021/06/23 00:23:24;;;;;;;38.10;23.77;;;;;;;13.51;94.16;99537.13;5012700;28;20041;-61
2021/06/23 00:25:50;;;;;;;44.97;23.83;;;;;;;13.49;94.08;99539.25;5012330;28;20041;-61
2021/06/23 00:28:15;;;;;;;39.30;22.35;;;;;;;13.56;94.30;99537.19;5012727;28;20026;-61
2021/06/23 00:30:41;;;;;;;40.92;24.17;;;;;;;13.58;94.86;99543.13;5010929;28;20485;-61
2021/06/23 00:33:08;;;;;;;38.78;24.05;;;;;;;13.43;94.34;99552.91;5011340;28;20057;-61
2021/06/23 00:35:34;;;;;;;39.50;23.45;;;;;;;13.45;94.09;99551.59;5012399;28;20049;-61
2021/06/23 00:37:59;;;;;;;43.17;23.25;;;;;;;13.51;94.00;99557.88;5012786;28;20032;-61
2021/06/23 00:40:25;;;;;;;41.20;22.23;;;;;;;13.50;93.91;99551.66;5012094;28;20042;-61
2021/06/23 00:42:51;;;;;;;40.92;23.77;;;;;;;13.53;93.93;99551.16;5011371;28;20092;-61
2021/06/23 00:45:17;;;;;;;47.47;23.30;;;;;;;13.59;93.76;99550.13;5010993;28;20022;-61
2021/06/23 00:47:44;;;;;;;38.92;23.83;;;;;;;13.60;94.22;99550.94;5012484;28;20037;-61
2021/06/23 00:50:10;;;;;;;44.13;22.67;;;;;;;13.63;94.18;99550.47;5010892;28;20028;-61
2021/06/23 00:52:36;;;;;;;42.78;24.20;;;;;;;13.60;94.54;99556.31;5012473;28;20103;-61
2021/06/23 00:55:01;;;;;;;39.90;23.73;;;;;;;13.57;93.75;99568.41;5010525;28;20022;-61
2021/06/23 00:57:27;;;;;;;40.17;23.35;;;;;;;13.63;94.30;99565.78;5011111;28;20072;-61
2021/06/23 00:59:54;;;;;;;39.03;23.10;;;;;;;13.59;94.44;99563.59;5010954;28;20042;-61
2021/06/23 01:02:20;;;;;;;42.72;22.42;;;;;;;13.64;93.82;99562.03;5011725;28;20034;-61
2021/06/23 01:04:49;;;;;;;40.80;24.20;;;;;;;13.64;93.85;99562.03;5012218;28;20072;-61
2021/06/23 01:07:15;;;;;;;39.97;24.25;;;;;;;13.65;93.39;99552.88;5010665;28;20058;-61
2021/06/23 01:09:41;;;;;;;38.72;23.58;;;;;;;13.63;92.86;99555.84;4994719;28;20577;-61
2021/06/23 01:12:28;;;;;;;52.13;24.77;;;;;;;13.55;94.27;99548.19;4994975;28;20041;-61
2021/06/23 01:14:58;;;;;;;48.30;23.52;;;;;;;13.64;94.65;99556.66;5015873;28;20033;-62
2021/06/23 01:17:26;;;;;;;45.97;22.90;;;;;;;13.67;94.30;99561.53;5015504;28;20065;-62
2021/06/23 01:19:51;;;;;;;43.05;24.10;;;;;;;13.62;94.15;99564.16;5016080;28;20077;-62
2021/06/23 01:22:17;;;;;;;40.17;24.02;;;;;;;13.64;93.93;99570.91;5014253;28;20053;-62
2021/06/23 01:24:43;;;;;;;45.40;24.95;;;;;;;13.57;94.03;99579.19;5014935;28;20040;-62
2021/06/23 01:27:09;;;;;;;43.10;24.65;;;;;;;13.64;93.99;99578.19;5015418;28;20049;-62
2021/06/23 01:29:36;;;;;;;40.03;24.48;;;;;;;13.59;93.88;99581.66;5015794;28;20056;-62
2021/06/23 01:32:01;;;;;;;56.10;25.85;;;;;;;13.66;93.79;99570.69;5014111;28;20116;-62
2021/06/23 01:34:26;;;;;;;47.13;24.98;;;;;;;13.66;94.06;99573.38;5015670;28;20026;-62
2021/06/23 01:36:52;;;;;;;45.33;24.40;;;;;;;13.67;93.88;99578.50;5015319;28;20488;-62
2021/06/23 01:39:17;;;;;;;44.95;25.42;;;;;;;13.64;93.72;99583.56;5015477;28;20476;-61
2021/06/23 01:41:43;;;;;;;40.95;23.25;;;;;;;13.71;94.06;99578.81;5015112;28;20046;-61
2021/06/23 01:44:08;;;;;;;41.83;25.00;;;;;;;13.73;93.67;99577.47;5015438;28;20022;-61
2021/06/23 01:46:34;;;;;;;50.60;27.08;;;;;;;13.76;93.94;99581.56;5014995;28;20037;-62
2021/06/23 01:48:59;;;;;;;41.50;24.10;;;;;;;13.81;93.73;99576.22;5015611;28;20029;-62
2021/06/23 01:51:24;;;;;;;40.30;24.70;;;;;;;13.76;93.33;99576.16;5014849;28;20030;-61
2021/06/23 01:53:50;;;;;;;51.17;24.70;;;;;;;13.81;93.08;99578.91;5015262;28;20456;-61
2021/06/23 01:56:15;;;;;;;41.35;24.80;;;;;;;13.70;93.26;99579.84;5013618;28;20053;-61
2021/06/23 01:58:42;;;;;;;58.00;26.85;;;;;;;13.63;93.82;99580.09;5014647;28;20084;-61
2021/06/23 02:01:11;;;;;;;43.92;25.52;;;;;;;13.56;93.75;99587.53;5014585;28;20064;-61
2021/06/23 02:03:55;;;;;;;48.28;25.90;;;;;;;13.61;94.13;99586.78;5015332;28;20018;-61
2021/06/23 02:06:37;;;;;;;44.33;26.13;;;;;;;13.64;94.20;99584.38;5014869;28;20130;-63
2021/06/23 02:09:38;;;;;;;47.53;26.63;;;;;;;13.56;93.87;99582.97;5013695;28;20034;-61
2021/06/23 02:12:10;;;;;;;56.35;27.98;;;;;;;13.52;94.21;99570.25;4996811;28;20038;-62
2021/06/23 02:14:39;;;;;;;49.45;27.67;;;;;;;13.55;94.09;99575.97;5015565;28;20064;-61
2021/06/23 02:17:09;;;;;;;53.60;28.45;;;;;;;13.61;93.95;99584.91;5013517;28;20057;-63
2021/06/23 02:19:41;;;;;;;56.67;27.55;;;;;;;13.53;94.55;99577.28;5015011;28;20113;-64
2021/06/23 02:22:09;;;;;;;50.25;27.25;;;;;;;13.56;94.10;99572.19;5014494;28;20052;-61
2021/06/23 02:24:34;;;;;;;52.88;25.30;;;;;;;13.64;94.13;99578.19;5012553;28;20080;-64
2021/06/23 02:27:00;;;;;;;51.95;26.90;;;;;;;13.68;95.00;99576.59;5013198;28;20034;-64
2021/06/23 02:29:25;;;;;;;48.78;26.20;;;;;;;13.65;94.65;99579.81;4980959;28;20083;-62
2021/06/23 02:31:51;;;;;;;40.65;25.67;;;;;;;13.64;93.58;99583.56;4996596;28;20041;-62
2021/06/23 02:34:16;;;;;;;45.10;26.20;;;;;;;13.65;94.55;99579.81;5014594;28;20041;-61
2021/06/23 02:36:42;;;;;;;55.13;27.15;;;;;;;13.68;93.92;99584.69;4996488;28;20037;-63
2021/06/23 02:39:07;;;;;;;47.75;24.40;;;;;;;13.63;94.27;99581.94;4996946;28;20396;-63
2021/06/23 02:41:33;;;;;;;43.70;24.95;;;;;;;13.55;94.61;99575.97;4996344;28;20034;-62
2021/06/23 02:43:58;;;;;;;51.53;26.13;;;;;;;13.57;94.32;99581.88;5013252;28;20026;-62
2021/06/23 02:46:24;;;;;;;45.63;25.73;;;;;;;13.55;94.65;99581.34;5014025;28;20453;-62
2021/06/23 02:48:53;;;;;;;52.85;26.40;;;;;;;13.44;94.94;99579.59;4996753;28;20417;-62
2021/06/23 02:51:20;;;;;;;47.45;26.80;;;;;;;13.45;94.90;99575.81;5012314;28;20045;-62
2021/06/23 02:53:49;;;;;;;53.80;27.77;;;;;;;13.36;95.01;99578.16;5014224;28;20444;-62
2021/06/23 02:56:15;;;;;;;53.45;27.15;;;;;;;13.39;95.04;99582.25;5013837;28;20439;-62
2021/06/23 02:58:41;;;;;;;54.97;29.10;;;;;;;13.40;95.39;99583.03;5014022;28;20037;-62
2021/06/23 03:01:07;;;;;;;57.67;29.33;;;;;;;13.36;95.10;99588.94;5013329;28;20216;-62
2021/06/23 03:03:32;;;;;;;56.35;27.30;;;;;;;13.29;95.39;99582.13;5014217;28;20033;-62
2021/06/23 03:06:02;;;;;;;60.03;28.73;;;;;;;13.32;95.63;99584.31;5013462;28;20523;-62
2021/06/23 03:08:28;;;;;;;53.28;27.17;;;;;;;13.28;94.83;99581.31;5014064;28;20175;-62
2021/06/23 03:10:54;;;;;;;50.08;28.48;;;;;;;13.34;95.39;99585.69;5013483;28;20030;-62
2021/06/23 03:13:19;;;;;;;53.75;27.85;;;;;;;13.32;95.22;99578.91;5013714;28;20033;-62
2021/06/23 03:15:44;;;;;;;51.97;25.75;;;;;;;13.34;94.93;99585.69;5013292;28;20030;-62
2021/06/23 03:18:10;;;;;;;53.78;24.77;;;;;;;13.37;94.21;99584.38;5013727;28;20061;-62
2021/06/23 03:20:35;;;;;;;46.33;26.23;;;;;;;13.31;94.80;99582.69;5013606;28;20088;-62
2021/06/23 03:23:01;;;;;;;46.58;24.63;;;;;;;13.26;94.80;99604.13;5013941;28;20350;-62
2021/06/23 03:25:26;;;;;;;46.17;24.60;;;;;;;13.30;95.20;99594.50;5012146;28;20034;-62
2021/06/23 03:27:55;;;;;;;46.97;24.25;;;;;;;13.39;94.78;99595.69;5013750;28;20021;-61
2021/06/23 03:30:22;;;;;;;42.40;24.45;;;;;;;13.37;94.55;99600.50;5011740;28;20038;-62
2021/06/23 03:32:48;;;;;;;48.47;25.38;;;;;;;13.35;94.83;99600.78;5012077;28;20034;-62
2021/06/23 03:35:14;;;;;;;51.42;23.10;;;;;;;13.35;94.57;99591.88;5012952;28;20109;-62
2021/06/23 03:37:40;;;;;;;45.33;23.40;;;;;;;13.33;94.63;99594.03;5013381;28;20025;-61
2021/06/23 03:40:08;;;;;;;47.17;24.60;;;;;;;13.19;95.20;99606.19;5011904;28;20029;-62
2021/06/23 03:42:33;;;;;;;43.30;24.30;;;;;;;13.29;95.30;99592.88;5013415;28;20023;-62
2021/06/23 03:44:59;;;;;;;42.50;24.27;;;;;;;13.25;95.23;99597.09;5011966;28;20026;-62
2021/06/23 03:47:24;;;;;;;45.13;22.85;;;;;;;13.33;95.19;99602.09;5013076;28;20414;-62
2021/06/23 03:49:50;;;;;;;41.42;23.30;;;;;;;13.38;94.69;99596.78;5013454;28;20018;-62
2021/06/23 03:52:15;;;;;;;43.90;23.20;;;;;;;13.42;94.71;99597.88;5011617;28;20401;-62
2021/06/23 03:54:41;;;;;;;39.40;21.90;;;;;;;13.42;94.36;99587.09;5013328;28;20029;-62
2021/06/23 03:57:06;;;;;;;39.17;19.90;;;;;;;13.46;94.42;99590.94;5012438;28;20041;-62
2021/06/23 03:59:32;;;;;;;40.22;20.73;;;;;;;13.43;93.57;99594.13;5012930;28;20132;-62
2021/06/23 04:01:57;;;;;;;43.67;22.55;;;;;;;13.37;93.65;99609.41;5012631;28;20038;-62
2021/06/23 04:04:22;;;;;;;35.17;19.98;;;;;;;13.41;93.82;99601.66;5013386;28;20030;-61
2021/06/23 04:06:48;;;;;;;32.75;19.35;;;;;;;13.48;94.26;99601.44;5012948;28;20034;-62
2021/06/23 04:09:13;;;;;;;37.53;21.30;;;;;;;13.43;94.68;99593.31;5013168;28;20473;-61
2021/06/23 04:11:39;;;;;;;37.30;21.27;;;;;;;13.49;94.01;99598.50;5011693;28;20045;-62
2021/06/23 04:14:04;;;;;;;35.03;19.65;;;;;;;13.55;93.85;99597.50;5012930;28;20076;-61
2021/06/23 04:16:30;;;;;;;33.50;20.83;;;;;;;13.52;92.50;99597.19;5011346;28;20034;-61
2021/06/23 04:18:55;;;;;;;34.78;19.95;;;;;;;13.62;92.72;99591.09;5011624;28;20029;-61
2021/06/23 04:21:21;;;;;;;33.28;19.30;;;;;;;13.48;93.35;99588.81;5012581;28;20107;-62
2021/06/23 04:23:46;;;;;;;36.03;19.55;;;;;;;13.61;93.64;99594.88;5012766;28;20030;-62
2021/06/23 04:26:11;;;;;;;37.75;20.42;;;;;;;13.51;93.51;99591.00;5012649;28;20045;-62
2021/06/23 04:28:37;;;;;;;36.40;20.45;;;;;;;13.39;94.32;99584.94;5012710;28;20041;-62
2021/06/23 04:31:02;;;;;;;35.63;21.17;;;;;;;13.45;94.95;99594.69;5010925;28;20034;-62
2021/06/23 04:33:28;;;;;;;41.08;20.45;;;;;;;13.55;92.85;99602.06;5011822;28;20021;-62
2021/06/23 04:35:55;;;;;;;33.00;21.50;;;;;;;13.58;92.34;99602.38;5012385;28;20058;-62
2021/06/23 04:38:20;;;;;;;36.33;21.60;;;;;;;13.63;92.64;99598.09;5012786;28;20034;-62
2021/06/23 04:40:46;;;;;;;33.30;20.45;;;;;;;13.77;91.69;99602.03;5011344;28;20459;-62
2021/06/23 04:43:11;;;;;;;31.25;20.42;;;;;;;13.72;91.28;99602.78;5012792;28;20384;-62
2021/06/23 04:45:37;;;;;;;33.45;20.23;;;;;;;13.65;91.93;99598.66;5012299;28;20042;-62
2021/06/23 04:48:03;;;;;;;41.58;19.45;;;;;;;13.64;92.52;99605.94;5015065;28;20037;-62
2021/06/23 04:50:28;;;;;;;39.80;20.75;;;;;;;13.59;91.86;99598.59;5016545;28;20034;-62
2021/06/23 04:52:53;;;;;;;35.67;20.95;;;;;;;13.49;91.96;99597.69;5015335;28;20068;-61
2021/06/23 04:55:19;;;;;;;37.47;20.52;;;;;;;13.55;92.72;99605.59;5016309;28;20030;-61
2021/06/23 04:57:44;;;;;;;41.00;20.67;;;;;;;13.61;92.32;99611.03;5016537;28;20116;-62
2021/06/23 05:00:10;;;;;;;35.70;20.13;;;;;;;13.70;91.85;99609.50;5014802;28;20046;-62
2021/06/23 05:02:36;;;;;;;32.97;19.45;;;;;;;13.63;92.27;99614.25;5016943;28;20030;-62
2021/06/23 05:05:02;;;;;;;41.60;19.55;;;;;;;13.77;91.63;99613.59;5016363;28;20025;-62
2021/06/23 05:07:27;;;;;;;33.33;20.05;;;;;;;13.80;91.44;99614.97;5016220;28;20492;-61
2021/06/23 05:09:53;;;;;;;41.30;20.23;;;;;;;13.89;91.30;99618.84;5016174;28;20049;-61
2021/06/23 05:12:18;;;;;;;44.38;19.45;;;;;;;14.08;90.33;99621.16;5015854;28;20030;-62
2021/06/23 05:14:44;;;;;;;34.83;19.65;;;;;;;14.25;89.39;99624.56;5016111;28;20108;-62
2021/06/23 05:17:10;;;;;;;40.30;19.52;;;;;;;14.34;88.83;99628.41;5015731;28;20038;-61
2021/06/23 05:19:36;;;;;;;46.05;20.23;;;;;;;14.45;88.79;99627.44;5016021;28;20088;-62
2021/06/23 05:22:03;;;;;;;44.65;21.88;;;;;;;14.48;88.50;99619.88;5015730;28;20038;-61
2021/06/23 05:24:32;;;;;;;35.70;20.30;;;;;;;14.29;88.70;99628.38;5014737;28;20029;-62
2021/06/23 05:26:58;;;;;;;42.05;21.98;;;;;;;14.32;88.89;99621.66;5014224;28;20041;-62
2021/06/23 05:29:23;;;;;;;40.05;21.00;;;;;;;14.44;89.23;99631.19;5016162;28;20486;-62
2021/06/23 05:31:49;;;;;;;40.92;23.08;;;;;;;14.19;88.92;99629.09;5015336;28;20034;-62
2021/06/23 05:34:14;;;;;;;40.20;22.60;;;;;;;13.99;89.42;99628.91;5015867;28;20033;-62
2021/06/23 05:36:40;;;;;;;35.17;20.25;;;;;;;14.19;90.29;99629.09;5015498;28;20041;-61
2021/06/23 05:39:05;;;;;;;41.60;23.58;;;;;;;14.15;89.79;99624.47;5014430;28;20026;-61
2021/06/23 05:41:31;;;;;;;44.28;24.27;;;;;;;14.14;89.71;99634.44;5014106;28;20121;-62
2021/06/23 05:43:56;;;;;;;41.90;23.20;;;;;;;14.34;90.54;99625.72;5015995;28;20057;-61
2021/06/23 05:46:22;;;;;;;44.20;23.58;;;;;;;14.46;89.61;99631.75;5015116;28;20037;-62
2021/06/23 05:48:47;;;;;;;51.72;23.75;;;;;;;14.35;90.46;99638.16;5015811;28;20092;-62
2021/06/23 05:51:12;;;;;;;54.22;24.63;;;;;;;14.51;90.47;99638.25;5015289;28;20045;-62
2021/06/23 05:53:38;;;;;;;41.47;23.95;;;;;;;14.48;90.11;99644.16;5015668;28;20032;-62
2021/06/23 05:56:04;;;;;;;49.28;24.10;;;;;;;14.37;90.79;99652.16;5015183;28;20042;-62
2021/06/23 05:58:29;;;;;;;43.03;25.55;;;;;;;14.34;90.03;99655.38;5015547;28;20160;-62
2021/06/23 06:00:55;;;;;;;58.60;25.60;;;;;;;14.49;90.23;99651.19;5015018;28;20038;-62
2021/06/23 06:03:20;;;;;;;46.50;26.10;;;;;;;14.53;90.34;99655.00;5015532;28;20133;-62
2021/06/23 06:05:47;;;;;;;54.13;24.48;;;;;;;14.79;88.93;99659.53;5013689;28;20030;-62
2021/06/23 06:08:12;;;;;;;47.50;23.67;;;;;;;14.84;87.33;99667.66;5015431;28;20029;-61
2021/06/23 06:10:38;;;;;;;47.53;25.23;;;;;;;14.79;88.31;99667.63;5014887;28;20041;-61
2021/06/23 06:13:04;;;;;;;42.33;23.67;;;;;;;14.86;88.02;99670.91;5015502;28;20481;-62
2021/06/23 06:15:30;;;;;;;45.25;23.17;;;;;;;15.05;86.98;99673.19;5014845;28;20476;-62
2021/06/23 06:18:02;;;;;;;48.33;26.08;;;;;;;14.92;87.77;99670.94;5015182;28;20040;-61
2021/06/23 06:20:28;;;;;;;41.22;22.70;;;;;;;15.15;87.19;99684.06;5014755;28;20038;-62
2021/06/23 06:22:53;;;;;;;46.95;25.52;;;;;;;15.14;85.58;99678.91;5015191;28;20018;-62
2021/06/23 06:25:18;;;;;;;43.13;23.08;;;;;;;14.83;86.10;99687.63;5014634;28;20523;-62
2021/06/23 06:27:44;;;;;;;46.30;24.92;;;;;;;14.83;86.81;99693.03;5014945;28;20415;-61
2021/06/23 06:30:09;;;;;;;41.35;24.70;;;;;;;14.92;87.27;99689.84;5014445;28;20026;-61
2021/06/23 06:32:35;;;;;;;38.33;24.73;;;;;;;15.24;86.50;99687.88;5013681;28;20026;-62
2021/06/23 06:35:00;;;;;;;45.33;24.02;;;;;;;15.45;85.38;99686.09;5014455;28;20037;-63
2021/06/23 06:37:26;;;;;;;43.58;23.60;;;;;;;15.51;85.58;99687.72;5014955;28;20029;-62
2021/06/23 06:39:51;;;;;;;43.75;23.95;;;;;;;15.78;84.25;99694.91;5014756;28;20461;-61
2021/06/23 06:42:17;;;;;;;39.20;23.70;;;;;;;15.43;86.27;99690.13;5014327;28;20515;-61
2021/06/23 06:44:42;;;;;;;42.33;23.48;;;;;;;15.46;85.54;99695.81;5015104;28;20018;-62
2021/06/23 06:47:08;;;;;;;33.65;21.88;;;;;;;15.54;84.34;99692.59;5014697;28;20050;-62
2021/06/23 06:49:33;;;;;;;47.92;22.65;;;;;;;15.62;84.23;99695.88;5013710;28;20026;-63
2021/06/23 06:52:00;;;;;;;46.92;23.55;;;;;;;15.39;85.80;99699.84;5014246;28;20034;-62
2021/06/23 06:54:26;;;;;;;40.28;24.25;;;;;;;15.35;86.41;99693.31;5014488;28;20490;-60
2021/06/23 06:56:52;;;;;;;42.13;24.35;;;;;;;15.31;86.56;99699.25;5013408;28;20050;-61
2021/06/23 06:59:18;;;;;;;40.55;25.05;;;;;;;15.26;87.13;99701.13;5014290;28;20049;-62
2021/06/23 07:01:45;;;;;;;41.22;22.92;;;;;;;15.31;84.79;99699.25;5014326;28;20034;-61
2021/06/23 07:04:10;;;;;;;46.63;25.77;;;;;;;15.14;85.56;99703.22;5014864;28;20022;-62
2021/06/23 07:06:36;;;;;;;42.92;23.38;;;;;;;15.27;85.81;99708.94;5012937;28;20034;-63
2021/06/23 07:09:01;;;;;;;46.28;24.75;;;;;;;15.20;86.76;99703.00;5014468;28;20037;-61
2021/06/23 07:11:27;;;;;;;42.40;26.63;;;;;;;15.02;88.12;99714.19;5013115;28;20053;-62
2021/06/23 07:13:52;;;;;;;45.95;25.45;;;;;;;15.10;86.65;99709.13;5014429;28;20041;-62
2021/06/23 07:16:17;;;;;;;43.30;25.90;;;;;;;15.04;88.09;99717.44;5013663;28;20041;-62
2021/06/23 07:18:45;;;;;;;43.85;27.73;;;;;;;15.10;87.03;99713.69;5014061;28;20044;-62
2021/06/23 07:21:16;;;;;;;45.63;26.98;;;;;;;15.07;86.89;99719.63;5013601;28;20034;-61
2021/06/23 07:23:41;;;;;;;39.03;25.92;;;;;;;15.01;85.96;99710.69;5012691;28;20114;-62
2021/06/23 07:26:07;;;;;;;43.50;26.52;;;;;;;14.99;86.52;99717.41;5013581;28;20038;-61
2021/06/23 07:28:53;;;;;;;50.72;26.77;;;;;;;15.04;85.92;99709.34;5014083;28;20033;-61
2021/06/23 07:31:38;;;;;;;45.58;27.75;;;;;;;14.97;86.63;99714.16;5013683;28;20037;-62
2021/06/23 07:36:56;;;;;;;46.38;27.17;;;;;;;15.47;84.93;99719.03;5013493;28;20069;-62
2021/06/23 07:39:22;;;;;;;47.10;26.95;;;;;;;15.60;85.04;99712.38;5013962;28;20477;-61
2021/06/23 07:41:48;;;;;;;55.20;26.30;;;;;;;15.30;86.48;99715.72;5013621;28;20038;-61
2021/06/23 07:44:17;;;;;;;55.38;29.48;;;;;;;15.35;86.83;99717.63;5013690;28;20033;-62
2021/06/23 07:46:49;;;;;;;51.00;28.08;;;;;;;15.59;84.74;99705.31;4995560;28;20484;-62
2021/06/23 07:49:16;;;;;;;51.78;28.33;;;;;;;15.82;83.39;99711.38;5013986;28;20033;-62
2021/06/23 08:10:37;;;;;;;64.70;37.22;;;;;;;15.72;83.78;99723.81;5013051;28;20064;-60
2021/06/23 08:13:04;;;;;;;85.68;42.40;;;;;;;15.55;85.00;99725.84;5013085;28;20499;-60
2021/06/23 08:15:30;;;;;;;77.80;42.65;;;;;;;15.47;86.12;99724.44;5012682;28;20038;-62
2021/06/23 08:17:56;;;;;;;104.65;46.33;;;;;;;15.32;85.37;99724.38;5011971;28;20022;-60
2021/06/23 08:20:21;;;;;;;87.75;44.50;;;;;;;15.19;85.77;99739.16;5012902;28;20092;-61
2021/06/23 08:22:47;;;;;;;88.82;45.20;;;;;;;14.97;85.44;99730.34;5012152;28;20033;-60
2021/06/23 08:25:12;;;;;;;92.68;46.70;;;;;;;15.31;85.73;99736.25;4995032;28;20026;-61
2021/06/23 08:27:38;;;;;;;98.68;42.75;;;;;;;15.61;84.81;99734.78;5012975;28;20037;-61
2021/06/23 08:30:05;;;;;;;78.85;41.38;;;;;;;15.82;83.65;99731.13;5012512;28;20028;-61
2021/06/23 08:32:30;;;;;;;85.20;42.05;;;;;;;16.02;82.17;99734.97;5011799;28;20037;-61
2021/06/23 08:34:55;;;;;;;78.15;41.33;;;;;;;16.01;82.76;99727.94;5013376;28;20026;-61
2021/06/23 08:37:21;;;;;;;74.43;39.78;;;;;;;15.90;82.42;99737.91;5012524;28;20105;-61
2021/06/23 08:39:46;;;;;;;79.97;38.90;;;;;;;15.86;82.34;99737.63;5013012;28;20022;-61
2021/06/23 08:42:12;;;;;;;77.75;39.72;;;;;;;15.89;82.46;99744.38;5012481;28;20030;-61
2021/06/23 08:44:38;;;;;;;74.63;40.40;;;;;;;16.08;82.50;99737.44;5011137;28;20037;-61
2021/06/23 08:47:03;;;;;;;77.28;40.47;;;;;;;16.48;80.06;99737.78;5012558;28;20393;-61
2021/06/23 08:49:29;;;;;;;73.78;38.95;;;;;;;16.49;81.06;99753.72;5012965;28;20446;-61
2021/06/23 08:51:55;;;;;;;68.55;38.05;;;;;;;16.57;81.04;99749.69;5012331;28;20402;-61
2021/06/23 08:54:21;;;;;;;70.03;38.17;;;;;;;16.66;79.60;99752.69;5013038;28;20049;-61
2021/06/23 08:56:46;;;;;;;62.17;36.20;;;;;;;16.83;79.30;99745.13;5012384;28;20391;-61
2021/06/23 08:59:12;;;;;;;67.45;36.22;;;;;;;16.54;79.82;99752.94;5011272;28;20029;-61
2021/06/23 09:01:37;;;;;;;63.97;35.70;;;;;;;16.20;79.63;99747.19;5010998;28;20038;-61
2021/06/23 09:04:12;;;;;;;66.93;37.03;;;;;;;16.24;81.48;99742.88;5011415;28;20026;-63
2021/06/23 09:06:41;;;;;;;60.92;36.65;;;;;;;16.31;81.11;99743.44;5012231;28;20129;-61
2021/06/23 09:09:26;;;;;;;65.95;36.85;;;;;;;16.48;80.67;99737.78;5012725;28;20361;-62
2021/06/23 09:11:59;;;;;;;53.15;32.03;;;;;;;17.30;76.64;99744.00;5012768;28;20100;-61
2021/06/23 09:14:29;;;;;;;61.65;34.28;;;;;;;17.08;76.55;99741.59;5013265;28;20033;-62
2021/06/23 09:17:16;;;;;;;55.33;31.60;;;;;;;17.37;76.75;99743.69;5012659;28;20400;-62
2021/06/23 09:19:43;;;;;;;59.75;31.73;;;;;;;17.34;76.48;99750.47;5012548;28;20026;-61
2021/06/23 09:22:45;;;;;;;56.63;31.25;;;;;;;17.87;73.44;99748.19;5012254;28;20063;-61
2021/06/23 09:25:10;;;;;;;53.63;30.60;;;;;;;18.31;71.46;99750.09;5012048;28;20022;-61
2021/06/23 09:27:36;;;;;;;56.33;30.15;;;;;;;18.88;70.84;99747.03;5011236;28;20550;-61
2021/06/23 09:30:24;;;;;;;59.22;30.38;;;;;;;19.11;70.97;99746.25;5010865;28;20384;-62
2021/06/23 09:33:18;;;;;;;56.70;29.55;;;;;;;18.78;70.68;99744.41;5013083;28;20499;-61
2021/06/23 09:36:09;;;;;;;39.80;25.77;;;;;;;18.35;72.06;99746.84;5015774;28;20523;-62
2021/06/23 09:38:43;;;;;;;44.17;26.67;;;;;;;17.88;72.71;99751.69;5016112;28;20026;-61
2021/06/23 09:41:23;;;;;;;45.10;26.48;;;;;;;17.74;74.29;99750.63;5015216;28;20100;-61
2021/06/23 09:44:00;;;;;;;43.65;27.30;;;;;;;18.20;72.83;99748.56;5016212;28;20026;-61
2021/06/23 09:46:33;;;;;;;51.35;26.75;;;;;;;17.78;74.12;99755.22;5015616;28;20133;-61
2021/06/23 09:49:27;;;;;;;45.72;26.17;;;;;;;18.25;72.77;99756.66;5015899;28;20040;-61
2021/06/23 09:51:54;;;;;;;43.30;25.80;;;;;;;18.44;70.26;99747.84;5006432;28;20424;-61
2021/06/23 09:54:30;;;;;;;40.85;24.85;;;;;;;18.69;69.79;99736.81;5015488;28;20026;-61
2021/06/23 09:57:04;;;;;;;43.75;25.30;;;;;;;18.60;70.12;99737.72;5014006;28;20042;-61
2021/06/23 09:59:37;;;;;;;42.63;24.20;;;;;;;18.73;71.45;99743.31;5015800;28;20054;-61
2021/06/23 10:02:03;;;;;;;42.17;23.90;;;;;;;18.94;68.36;99738.53;5015243;28;20093;-61
2021/06/23 10:04:35;;;;;;;40.10;24.50;;;;;;;18.76;69.55;99741.94;5014368;28;20524;-61
2021/06/23 10:07:02;;;;;;;43.90;22.95;;;;;;;18.63;69.42;99740.66;5015015;28;20045;-61
2021/06/23 10:09:29;;;;;;;38.33;22.48;;;;;;;18.59;69.13;99747.75;5015426;28;20388;-61
2021/06/23 10:12:01;;;;;;;36.15;23.00;;;;;;;18.49;69.28;99748.63;5015043;28;20045;-61
2021/06/23 10:14:29;;;;;;;37.22;22.77;;;;;;;18.35;70.47;99741.44;5015256;28;20441;-61
2021/06/23 10:16:54;;;;;;;36.30;23.65;;;;;;;17.98;72.78;99738.09;5013509;28;20042;-61
2021/06/23 10:19:20;;;;;;;40.20;24.35;;;;;;;17.76;73.57;99738.44;5015394;28;20502;-61
2021/06/23 10:21:46;;;;;;;42.47;25.30;;;;;;;17.68;73.75;99734.41;5015063;28;20034;-61
2021/06/23 10:24:12;;;;;;;45.97;26.38;;;;;;;17.82;71.67;99733.81;5015344;28;20099;-61
2021/06/23 10:26:47;;;;;;;49.85;28.30;;;;;;;17.19;73.72;99736.97;5014278;28;20045;-61
2021/06/23 10:29:13;;;;;;;46.72;27.83;;;;;;;17.95;72.84;99724.28;5015233;28;20413;-61
2021/06/23 10:31:40;;;;;;;55.40;29.70;;;;;;;17.65;72.08;99729.53;4997262;28;20038;-61
2021/06/23 10:34:07;;;;;;;59.42;32.58;;;;;;;17.64;73.81;99737.94;5013988;28;20488;-61
2021/06/23 10:36:33;;;;;;;53.85;30.73;;;;;;;17.97;72.94;99738.34;5013614;28;20080;-61
2021/06/23 10:38:58;;;;;;;54.70;28.85;;;;;;;18.47;71.71;99742.69;4997625;28;20026;-61
2021/06/23 10:41:23;;;;;;;53.33;29.40;;;;;;;19.02;70.20;99741.72;4996821;28;20038;-61
2021/06/23 10:44:18;;;;;;;52.03;28.00;;;;;;;18.71;71.02;99744.69;4997480;28;20044;-61
2021/06/23 10:46:47;;;;;;;64.32;33.03;;;;;;;18.51;71.39;99735.59;5008898;28;20088;-61
2021/06/23 10:49:18;;;;;;;49.80;29.08;;;;;;;19.35;68.92;99732.72;5014935;28;20026;-61
2021/06/23 10:51:45;;;;;;;52.00;30.58;;;;;;;19.33;67.77;99744.97;5013111;28;20109;-61
2021/06/23 10:54:34;;;;;;;54.97;29.10;;;;;;;19.80;66.36;99743.38;5014971;28;20345;-61
2021/06/23 10:56:59;;;;;;;51.20;28.25;;;;;;;19.72;65.55;99747.56;5014084;28;20476;-61
2021/06/23 10:59:34;;;;;;;49.85;28.42;;;;;;;19.77;65.82;99749.41;5013116;28;20099;-61
2021/06/23 11:02:11;;;;;;;43.28;25.70;;;;;;;20.20;63.06;99746.66;5014155;28;20038;-61
2021/06/23 11:05:00;;;;;;;50.15;28.25;;;;;;;19.46;67.08;99744.28;5013226;28;20022;-61
2021/06/23 11:07:39;;;;;;;44.65;27.55;;;;;;;19.77;65.78;99754.84;5012299;28;20042;-61
2021/06/23 11:10:13;;;;;;;47.78;28.35;;;;;;;19.87;65.67;99756.59;5014213;28;20053;-62
2021/06/23 11:12:51;;;;;;;45.78;25.60;;;;;;;20.11;64.27;99754.66;5014603;28;20108;-61
2021/06/23 11:15:35;;;;;;;41.55;25.67;;;;;;;19.91;65.13;99754.94;5013917;28;20096;-61
2021/06/23 11:18:27;;;;;;;54.97;28.52;;;;;;;20.18;64.71;99749.66;5014157;28;20037;-61
2021/06/23 11:20:54;;;;;;;44.75;26.77;;;;;;;20.56;62.47;99759.78;5014117;28;20396;-62
2021/06/23 11:23:38;;;;;;;47.85;27.65;;;;;;;20.75;60.70;99755.13;5013984;28;20018;-62
2021/06/23 11:26:03;;;;;;;47.25;26.33;;;;;;;20.23;63.52;99751.50;5011976;28;20038;-61
2021/06/23 11:28:29;;;;;;;50.03;28.30;;;;;;;20.08;64.44;99749.00;5013292;28;20025;-61
2021/06/23 11:31:03;;;;;;;51.15;27.52;;;;;;;19.33;66.07;99753.13;5012575;28;20572;-61
2021/06/23 11:33:28;;;;;;;46.78;27.17;;;;;;;19.11;67.73;99754.41;5012610;28;20022;-61
2021/06/23 11:36:02;;;;;;;52.85;29.55;;;;;;;19.44;66.71;99756.53;5013629;28;20092;-61
2021/06/23 11:38:27;;;;;;;49.28;28.00;;;;;;;19.35;65.79;99754.44;5013934;28;20101;-61
2021/06/23 11:40:54;;;;;;;48.03;27.10;;;;;;;19.70;64.91;99759.81;5013362;28;20047;-61
2021/06/23 11:43:19;;;;;;;46.80;26.98;;;;;;;20.43;62.32;99762.09;5013811;28;20121;-62